Quartz Hill, California
Current Conditions -  °F | °C
As of 5:53 PM on Saturday 25 Oct 2014 (Local Time) from KPMD Reporting Station
Clear Clear  
Wind Chill: 23°   Ceiling: Unl
Heat Index: 23°   Visibility: 10mi
Dew Point:   Wind: 14mph
Humidity: 33%   Direction: 250°WSW
Pressure: 30.04"   Gusts: NA
Location:  34.5959°N, 118.235°W
Report Text: KPMD 260053Z 25012KT 10SM CLR 23/06 A3004 RMK AO2 SLP151 T02280056
Loading
Personal Weather Stations






























Interactive Weather Map
Tropical Storm Tracking
New forecast layout! Learn more

10-Day Weather Forecast

Advertisements
Track Severe Weather on mobile